Decoded Metar for OMSJ (SHARJAH in UNITED ARAB EMIRATES) (IATA:SHJ) | Meteo·Mobile Aviation Weather
aviador You're here:

OMSJ Decoded Metar

SHARJAH in UNITED ARAB EMIRATES
Report Time2018-08-21 12:00:00
UTC Time2018-08-21 12:11:45
Flight Rules vfr VFR
Wind360° at 11 kt
W.Decomp.*RWY 30: 5.7 kt HW 9.4 kt RCW
Visibility8000 m
Phenomena:N/A
Clouds:N/A
Expected CloudBase > 4,000 ft AGL from Temp-Dew spread
CeilingNone
Temp38°C (ISA +23)
Dew Point28°C (57% RH)
Heat Index52.9°C
QNH0997 hPa
Density Alt3,757 ft
Elevation108 ft
Report Wrong Elevation
Raw Report
METAR OMSJ 211200Z 36011KT 8000 NSC 38/28 Q0997=####018000086####
SASG20 GOOY 211200

Extra information for OMSJ:More info

Metar Taf Metar & Taf Last 4 Metars F.Rules Stats Wind Profile Meteogram Temp Stats Airport Information Weather charts Add Link Nearby VenuesMetar ALERT Operation Metar Decoded Social comments